Terminal Aerodrome Forecast
Issued by NWS

Home | Current Version | Previous Version | Text Only | Print | Product List | Glossary On
Versions: 1 2 3 4 5 6 7 8 9 10 11 12 13
000
FTUS42 TJSJ 230500
TAFIST
TAF
TIST 230533Z 2306/2406 13009KT P6SM VCTS FEW025CB BKN040 BKN100
      TEMPO 2306/2310 VRB12G19KT 5SM TSRA BKN025CB OVC040
     FM231330 11012KT P6SM VCSH SCT022 SCT040 SCT100
     FM232300 09010KT P6SM SCT025 SCT050 SCT120=

USA.gov is the U.S. government's official web portal to all federal, state and local government web resources and services.